Aviation Digital Data Service (ADDS)

Output produced by METARs form (1551 UTC 28 April 2017)
found at http://aviationweather.gov/adds/metars/
 
KBFD 281503Z 2815/2912 23007KT P6SM SCT250 
     FM290000 19005KT P6SM OVC100 
     FM290600 VRB04KT P6SM OVC025